Terminal Aerodrome Forecast
Issued by NWS

Home | Current Version | Previous Version | Text Only | Print | Product List | Glossary On
Versions: 1 2 3 4 5 6 7 8 9 10 11 12 13 14 15 16 17 18 19 20 21 22 23 24 25 26 27 28 29
692
FTUS41 KOKX 271124
TAFSWF
TAF
KSWF 271124Z 2712/2818 VRB04KT P6SM SKC
     FM271400 05006KT P6SM FEW250
     FM272100 19005KT P6SM SCT250
     FM280000 VRB04KT P6SM FEW250
     FM281500 20006KT P6SM FEW250
      AMD NOT SKED=

USA.gov is the U.S. government's official web portal to all federal, state and local government web resources and services.